sensor_id;sensor_type;location;lat;lon;timestamp;pressure;altitude;pressure_sealevel;temperature;humidity
78990;BME280;68390;52.130;21.218;2024-01-27T00:00:17;100240.63;;;0.87;100.00
78990;BME280;68390;52.130;21.218;2024-01-27T00:02:43;100258.31;;;1.03;100.00
78990;BME280;68390;52.130;21.218;2024-01-27T00:05:08;100248.66;;;1.12;100.00
78990;BME280;68390;52.130;21.218;2024-01-27T00:07:34;100261.25;;;1.24;100.00
78990;BME280;68390;52.130;21.218;2024-01-27T00:09:59;100260.97;;;1.40;100.00
78990;BME280;68390;52.130;21.218;2024-01-27T00:12:25;100270.03;;;1.63;100.00
78990;BME280;68390;52.130;21.218;2024-01-27T00:14:50;100267.16;;;1.88;100.00
78990;BME280;68390;52.130;21.218;2024-01-27T00:17:16;100273.59;;;1.98;100.00
78990;BME280;68390;52.130;21.218;2024-01-27T00:19:41;100285.97;;;2.13;100.00
78990;BME280;68390;52.130;21.218;2024-01-27T00:22:07;100288.16;;;2.19;100.00
78990;BME280;68390;52.130;21.218;2024-01-27T00:24:33;100307.03;;;2.32;100.00
78990;BME280;68390;52.130;21.218;2024-01-27T00:26:59;100299.06;;;2.42;100.00
78990;BME280;68390;52.130;21.218;2024-01-27T00:29:24;100297.72;;;2.47;100.00
78990;BME280;68390;52.130;21.218;2024-01-27T00:31:50;100307.69;;;2.47;100.00
78990;BME280;68390;52.130;21.218;2024-01-27T00:34:16;100326.81;;;2.56;100.00
78990;BME280;68390;52.130;21.218;2024-01-27T00:36:41;100303.50;;;2.54;100.00
78990;BME280;68390;52.130;21.218;2024-01-27T00:39:17;100321.97;;;2.60;100.00
78990;BME280;68390;52.130;21.218;2024-01-27T00:41:42;100327.78;;;2.67;100.00
78990;BME280;68390;52.130;21.218;2024-01-27T00:44:08;100347.63;;;2.67;100.00
78990;BME280;68390;52.130;21.218;2024-01-27T00:46:34;100337.53;;;2.69;100.00
78990;BME280;68390;52.130;21.218;2024-01-27T00:48:59;100353.53;;;2.72;100.00
78990;BME280;68390;52.130;21.218;2024-01-27T00:51:25;100355.50;;;2.70;100.00
78990;BME280;68390;52.130;21.218;2024-01-27T00:53:50;100358.22;;;2.70;100.00
78990;BME280;68390;52.130;21.218;2024-01-27T00:56:15;100369.81;;;2.72;100.00
78990;BME280;68390;52.130;21.218;2024-01-27T00:58:41;100372.78;;;2.69;100.00
78990;BME280;68390;52.130;21.218;2024-01-27T01:01:06;100381.41;;;2.74;100.00
78990;BME280;68390;52.130;21.218;2024-01-27T01:03:32;100381.16;;;2.77;100.00
78990;BME280;68390;52.130;21.218;2024-01-27T01:05:57;100399.41;;;2.75;100.00
78990;BME280;68390;52.130;21.218;2024-01-27T01:08:23;100389.91;;;2.81;100.00
78990;BME280;68390;52.130;21.218;2024-01-27T01:10:48;100390.66;;;2.83;100.00
78990;BME280;68390;52.130;21.218;2024-01-27T01:13:13;100388.91;;;2.82;100.00
78990;BME280;68390;52.130;21.218;2024-01-27T01:15:39;100389.91;;;2.81;100.00
78990;BME280;68390;52.130;21.218;2024-01-27T01:18:05;100398.78;;;2.83;100.00
78990;BME280;68390;52.130;21.218;2024-01-27T01:20:30;100410.50;;;2.83;100.00
78990;BME280;68390;52.130;21.218;2024-01-27T01:22:57;100401.75;;;2.80;100.00
78990;BME280;68390;52.130;21.218;2024-01-27T01:25:23;100412.47;;;2.81;100.00
78990;BME280;68390;52.130;21.218;2024-01-27T01:27:48;100424.19;;;2.82;100.00
78990;BME280;68390;52.130;21.218;2024-01-27T01:30:15;100417.03;;;2.81;100.00
78990;BME280;68390;52.130;21.218;2024-01-27T01:32:42;100420.59;;;2.81;100.00
78990;BME280;68390;52.130;21.218;2024-01-27T01:35:08;100432.19;;;2.83;100.00
78990;BME280;68390;52.130;21.218;2024-01-27T01:37:33;100430.34;;;2.84;100.00
78990;BME280;68390;52.130;21.218;2024-01-27T01:39:59;100421.34;;;2.83;100.00
78990;BME280;68390;52.130;21.218;2024-01-27T01:42:24;100428.63;;;2.83;100.00
78990;BME280;68390;52.130;21.218;2024-01-27T01:44:51;100435.66;;;2.85;100.00
78990;BME280;68390;52.130;21.218;2024-01-27T01:47:17;100436.63;;;2.84;100.00
78990;BME280;68390;52.130;21.218;2024-01-27T01:49:42;100432.19;;;2.83;100.00
78990;BME280;68390;52.130;21.218;2024-01-27T01:52:08;100447.59;;;2.83;100.00
78990;BME280;68390;52.130;21.218;2024-01-27T01:54:34;100443.28;;;2.80;100.00
78990;BME280;68390;52.130;21.218;2024-01-27T01:56:59;100454.63;;;2.85;100.00
78990;BME280;68390;52.130;21.218;2024-01-27T01:59:25;100450.94;;;2.86;100.00
78990;BME280;68390;52.130;21.218;2024-01-27T02:01:51;100455.13;;;2.79;100.00
78990;BME280;68390;52.130;21.218;2024-01-27T02:04:16;100447.13;;;2.78;100.00
78990;BME280;68390;52.130;21.218;2024-01-27T02:06:42;100449.44;;;2.82;100.00
78990;BME280;68390;52.130;21.218;2024-01-27T02:09:07;100462.03;;;2.83;100.00
78990;BME280;68390;52.130;21.218;2024-01-27T02:11:32;100461.16;;;2.83;100.00
78990;BME280;68390;52.130;21.218;2024-01-27T02:13:58;100457.69;;;2.81;100.00
78990;BME280;68390;52.130;21.218;2024-01-27T02:16:23;100465.50;;;2.85;100.00
78990;BME280;68390;52.130;21.218;2024-01-27T02:18:49;100461.78;;;2.86;100.00
78990;BME280;68390;52.130;21.218;2024-01-27T02:21:14;100465.50;;;2.85;100.00
78990;BME280;68390;52.130;21.218;2024-01-27T02:23:39;100465.50;;;2.85;100.00
78990;BME280;68390;52.130;21.218;2024-01-27T02:26:05;100473.63;;;2.85;100.00
78990;BME280;68390;52.130;21.218;2024-01-27T02:28:30;100471.78;;;2.86;100.00
78990;BME280;68390;52.130;21.218;2024-01-27T02:30:57;100485.44;;;2.84;100.00
78990;BME280;68390;52.130;21.218;2024-01-27T02:33:25;100470.91;;;2.85;100.00
78990;BME280;68390;52.130;21.218;2024-01-27T02:35:50;100475.47;;;2.85;100.00
78990;BME280;68390;52.130;21.218;2024-01-27T02:38:15;100470.91;;;2.85;100.00
78990;BME280;68390;52.130;21.218;2024-01-27T02:40:41;100480.56;;;2.89;100.00
78990;BME280;68390;52.130;21.218;2024-01-27T02:43:06;100485.22;;;2.87;100.00
78990;BME280;68390;52.130;21.218;2024-01-27T02:45:31;100482.50;;;2.87;100.00
78990;BME280;68390;52.130;21.218;2024-01-27T02:47:57;100479.69;;;2.89;100.00
78990;BME280;68390;52.130;21.218;2024-01-27T02:50:22;100471.78;;;2.86;100.00
78990;BME280;68390;52.130;21.218;2024-01-27T02:52:47;100484.34;;;2.87;100.00
78990;BME280;68390;52.130;21.218;2024-01-27T02:55:13;100483.38;;;2.88;100.00
78990;BME280;68390;52.130;21.218;2024-01-27T02:57:40;100494.09;;;2.89;100.00
78990;BME280;68390;52.130;21.218;2024-01-27T03:00:06;100495.44;;;2.84;100.00
78990;BME280;68390;52.130;21.218;2024-01-27T03:02:31;100504.97;;;2.89;100.00
78990;BME280;68390;52.130;21.218;2024-01-27T03:04:57;100494.09;;;2.89;100.00
78990;BME280;68390;52.130;21.218;2024-01-27T03:07:22;100495.09;;;2.88;100.00
78990;BME280;68390;52.130;21.218;2024-01-27T03:09:49;100510.13;;;2.92;100.00
78990;BME280;68390;52.130;21.218;2024-01-27T03:12:15;100505.81;;;2.90;100.00
78990;BME280;68390;52.130;21.218;2024-01-27T03:14:41;100504.97;;;2.89;100.00
78990;BME280;68390;52.130;21.218;2024-01-27T03:17:07;100514.81;;;2.90;100.00
78990;BME280;68390;52.130;21.218;2024-01-27T03:19:32;100516.28;;;2.94;100.00
78990;BME280;68390;52.130;21.218;2024-01-27T03:21:58;100505.19;;;2.86;100.00
78990;BME280;68390;52.130;21.218;2024-01-27T03:24:23;100519.00;;;2.94;100.00
78990;BME280;68390;52.130;21.218;2024-01-27T03:26:48;100510.38;;;2.89;100.00
78990;BME280;68390;52.130;21.218;2024-01-27T03:29:14;100512.94;;;2.91;100.00
78990;BME280;68390;52.130;21.218;2024-01-27T03:31:39;100524.66;;;2.91;100.00
78990;BME280;68390;52.130;21.218;2024-01-27T03:34:05;100519.38;;;2.90;100.00
78990;BME280;68390;52.130;21.218;2024-01-27T03:36:30;100527.53;;;2.90;100.00
78990;BME280;68390;52.130;21.218;2024-01-27T03:38:57;100520.84;;;2.94;100.00
78990;BME280;68390;52.130;21.218;2024-01-27T03:41:23;100524.91;;;2.88;100.00
78990;BME280;68390;52.130;21.218;2024-01-27T03:43:49;100532.81;;;2.91;100.00
78990;BME280;68390;52.130;21.218;2024-01-27T03:46:14;100521.94;;;2.91;98.63
78990;BME280;68390;52.130;21.218;2024-01-27T03:48:40;100528.25;;;2.92;99.75
78990;BME280;68390;52.130;21.218;2024-01-27T03:51:06;100523.69;;;2.92;99.09
78990;BME280;68390;52.130;21.218;2024-01-27T03:53:31;100530.09;;;2.91;98.71
78990;BME280;68390;52.130;21.218;2024-01-27T03:55:57;100535.28;;;2.94;98.50
78990;BME280;68390;52.130;21.218;2024-01-27T03:58:25;100538.75;;;2.97;98.16
78990;BME280;68390;52.130;21.218;2024-01-27T04:00:51;100535.28;;;2.94;97.60
78990;BME280;68390;52.130;21.218;2024-01-27T04:03:16;100537.00;;;2.95;97.24
78990;BME280;68390;52.130;21.218;2024-01-27T04:05:42;100546.88;;;2.97;97.57
78990;BME280;68390;52.130;21.218;2024-01-27T04:08:07;100548.72;;;2.96;97.82
78990;BME280;68390;52.130;21.218;2024-01-27T04:10:33;100549.59;;;2.97;97.44
78990;BME280;68390;52.130;21.218;2024-01-27T04:12:59;100556.75;;;2.98;96.62
78990;BME280;68390;52.130;21.218;2024-01-27T04:15:24;100553.28;;;2.95;96.70
78990;BME280;68390;52.130;21.218;2024-01-27T04:17:50;100556.00;;;2.95;97.96
78990;BME280;68390;52.130;21.218;2024-01-27T04:20:15;100558.22;;;2.90;98.83
78990;BME280;68390;52.130;21.218;2024-01-27T04:22:41;100554.75;;;2.88;100.00
78990;BME280;68390;52.130;21.218;2024-01-27T04:25:07;100570.28;;;2.86;99.62
78990;BME280;68390;52.130;21.218;2024-01-27T04:27:37;100568.53;;;2.85;99.99
78990;BME280;68390;52.130;21.218;2024-01-27T04:30:04;100567.78;;;2.83;100.00
78990;BME280;68390;52.130;21.218;2024-01-27T04:32:30;100568.75;;;2.82;100.00
78990;BME280;68390;52.130;21.218;2024-01-27T04:34:55;100583.31;;;2.81;100.00
78990;BME280;68390;52.130;21.218;2024-01-27T04:37:20;100569.75;;;2.81;100.00
78990;BME280;68390;52.130;21.218;2024-01-27T04:39:46;100564.56;;;2.78;99.81
78990;BME280;68390;52.130;21.218;2024-01-27T04:42:11;100586.00;;;2.81;99.90
78990;BME280;68390;52.130;21.218;2024-01-27T04:44:40;100572.72;;;2.78;99.60
78990;BME280;68390;52.130;21.218;2024-01-27T04:47:05;100578.13;;;2.78;99.74
78990;BME280;68390;52.130;21.218;2024-01-27T04:49:31;100585.28;;;2.79;99.33
78990;BME280;68390;52.130;21.218;2024-01-27T04:51:56;100584.53;;;2.77;99.58
78990;BME280;68390;52.130;21.218;2024-01-27T04:54:21;100588.97;;;2.78;99.75
78990;BME280;68390;52.130;21.218;2024-01-27T04:56:47;100594.41;;;2.78;99.35
78990;BME280;68390;52.130;21.218;2024-01-27T04:59:12;100583.56;;;2.78;99.11
78990;BME280;68390;52.130;21.218;2024-01-27T05:01:37;100593.44;;;2.79;99.15
78990;BME280;68390;52.130;21.218;2024-01-27T05:04:03;100585.50;;;2.76;98.06
78990;BME280;68390;52.130;21.218;2024-01-27T05:06:30;100592.41;;;2.80;98.73
78990;BME280;68390;52.130;21.218;2024-01-27T05:08:55;100587.00;;;2.80;97.50
78990;BME280;68390;52.130;21.218;2024-01-27T05:11:29;100591.69;;;2.78;97.38
78990;BME280;68390;52.130;21.218;2024-01-27T05:13:56;100591.31;;;2.83;97.36
78990;BME280;68390;52.130;21.218;2024-01-27T05:16:21;100597.63;;;2.83;97.28
78990;BME280;68390;52.130;21.218;2024-01-27T05:18:46;100600.31;;;2.83;97.54
78990;BME280;68390;52.130;21.218;2024-01-27T05:21:12;100604.88;;;2.83;97.40
78990;BME280;68390;52.130;21.218;2024-01-27T05:23:37;100601.56;;;2.79;97.73
78990;BME280;68390;52.130;21.218;2024-01-27T05:26:05;100603.41;;;2.79;98.14
78990;BME280;68390;52.130;21.218;2024-01-27T05:28:31;100592.66;;;2.77;98.88
78990;BME280;68390;52.130;21.218;2024-01-27T05:30:57;100592.66;;;2.77;98.88
78990;BME280;68390;52.130;21.218;2024-01-27T05:33:22;100593.88;;;2.73;98.45
78990;BME280;68390;52.130;21.218;2024-01-27T05:35:47;100595.72;;;2.73;99.25
78990;BME280;68390;52.130;21.218;2024-01-27T05:38:13;100595.72;;;2.73;99.33
78990;BME280;68390;52.130;21.218;2024-01-27T05:40:38;100592.25;;;2.71;99.12
78990;BME280;68390;52.130;21.218;2024-01-27T05:43:03;100593.13;;;2.71;98.73
78990;BME280;68390;52.130;21.218;2024-01-27T05:45:29;100599.41;;;2.72;99.20
78990;BME280;68390;52.130;21.218;2024-01-27T05:47:56;100596.94;;;2.69;98.92
78990;BME280;68390;52.130;21.218;2024-01-27T05:50:21;100596.09;;;2.68;99.53
78990;BME280;68390;52.130;21.218;2024-01-27T05:52:47;100611.38;;;2.69;99.94
78990;BME280;68390;52.130;21.218;2024-01-27T05:55:12;100613.31;;;2.67;99.90
78990;BME280;68390;52.130;21.218;2024-01-27T05:57:38;100588.66;;;2.59;100.00
78990;BME280;68390;52.130;21.218;2024-01-27T06:00:04;100608.34;;;2.61;100.00
78990;BME280;68390;52.130;21.218;2024-01-27T06:02:30;100594.28;;;2.56;100.00
78990;BME280;68390;52.130;21.218;2024-01-27T06:04:55;100602.53;;;2.54;100.00
78990;BME280;68390;52.130;21.218;2024-01-27T06:07:21;100609.69;;;2.55;100.00
78990;BME280;68390;52.130;21.218;2024-01-27T06:09:46;100600.16;;;2.50;100.00
78990;BME280;68390;52.130;21.218;2024-01-27T06:12:11;100609.91;;;2.52;100.00
78990;BME280;68390;52.130;21.218;2024-01-27T06:14:37;100600.91;;;2.52;100.00
78990;BME280;68390;52.130;21.218;2024-01-27T06:17:04;100594.97;;;2.47;100.00
78990;BME280;68390;52.130;21.218;2024-01-27T06:19:29;100602.13;;;2.48;100.00
78990;BME280;68390;52.130;21.218;2024-01-27T06:21:55;100603.63;;;2.52;100.00
78990;BME280;68390;52.130;21.218;2024-01-27T06:24:20;100603.50;;;2.53;99.76
78990;BME280;68390;52.130;21.218;2024-01-27T06:26:45;100615.09;;;2.55;100.00
78990;BME280;68390;52.130;21.218;2024-01-27T06:29:11;100613.25;;;2.56;99.38
78990;BME280;68390;52.130;21.218;2024-01-27T06:31:36;100614.03;;;2.58;99.41
78990;BME280;68390;52.130;21.218;2024-01-27T06:34:02;100620.06;;;2.62;99.87
78990;BME280;68390;52.130;21.218;2024-01-27T06:36:27;100619.44;;;2.58;98.45
78990;BME280;68390;52.130;21.218;2024-01-27T06:38:52;100621.19;;;2.59;98.43
78990;BME280;68390;52.130;21.218;2024-01-27T06:41:18;100625.72;;;2.58;98.03
78990;BME280;68390;52.130;21.218;2024-01-27T06:43:43;100627.31;;;2.61;98.26
78990;BME280;68390;52.130;21.218;2024-01-27T06:46:08;100622.03;;;2.60;97.53
78990;BME280;68390;52.130;21.218;2024-01-27T06:48:34;100631.75;;;2.62;98.42
78990;BME280;68390;52.130;21.218;2024-01-27T06:51:00;100626.72;;;2.57;98.39
78990;BME280;68390;52.130;21.218;2024-01-27T06:53:25;100630.50;;;2.55;99.49
78990;BME280;68390;52.130;21.218;2024-01-27T06:55:50;100626.81;;;2.56;99.28
78990;BME280;68390;52.130;21.218;2024-01-27T06:58:16;100625.28;;;2.52;99.89
78990;BME280;68390;52.130;21.218;2024-01-27T07:00:41;100638.97;;;2.50;100.00
78990;BME280;68390;52.130;21.218;2024-01-27T07:03:07;100629.34;;;2.46;100.00
78990;BME280;68390;52.130;21.218;2024-01-27T07:05:33;100628.91;;;2.40;100.00
78990;BME280;68390;52.130;21.218;2024-01-27T07:08:05;100617.56;;;2.35;100.00
78990;BME280;68390;52.130;21.218;2024-01-27T07:10:31;100632.84;;;2.36;100.00
78990;BME280;68390;52.130;21.218;2024-01-27T07:12:56;100629.69;;;2.29;100.00
78990;BME280;68390;52.130;21.218;2024-01-27T07:15:21;100629.19;;;2.24;100.00
78990;BME280;68390;52.130;21.218;2024-01-27T07:17:48;100638.94;;;2.27;100.00
78990;BME280;68390;52.130;21.218;2024-01-27T07:20:14;100646.31;;;2.25;100.00
78990;BME280;68390;52.130;21.218;2024-01-27T07:22:39;100647.50;;;2.20;100.00
78990;BME280;68390;52.130;21.218;2024-01-27T07:25:05;100646.97;;;2.15;100.00
78990;BME280;68390;52.130;21.218;2024-01-27T07:27:30;100647.41;;;2.09;100.00
78990;BME280;68390;52.130;21.218;2024-01-27T07:29:55;100645.66;;;2.08;100.00
78990;BME280;68390;52.130;21.218;2024-01-27T07:32:21;100639.38;;;2.08;100.00
78990;BME280;68390;52.130;21.218;2024-01-27T07:34:47;100637.31;;;2.11;100.00
78990;BME280;68390;52.130;21.218;2024-01-27T07:37:12;100642.75;;;2.11;100.00
78990;BME280;68390;52.130;21.218;2024-01-27T07:39:38;100652.72;;;2.11;100.00
78990;BME280;68390;52.130;21.218;2024-01-27T07:42:03;100646.66;;;2.07;100.00
78990;BME280;68390;52.130;21.218;2024-01-27T07:44:29;100643.09;;;2.07;100.00
78990;BME280;68390;52.130;21.218;2024-01-27T07:46:55;100652.59;;;2.12;100.00
78990;BME280;68390;52.130;21.218;2024-01-27T07:49:22;100654.56;;;2.10;100.00
78990;BME280;68390;52.130;21.218;2024-01-27T07:51:48;100651.53;;;2.02;100.00
78990;BME280;68390;52.130;21.218;2024-01-27T07:54:13;100658.69;;;2.03;100.00
78990;BME280;68390;52.130;21.218;2024-01-27T07:56:38;100662.91;;;2.07;100.00
78990;BME280;68390;52.130;21.218;2024-01-27T07:59:06;100656.19;;;2.00;100.00
78990;BME280;68390;52.130;21.218;2024-01-27T08:01:39;100672.13;;;2.05;100.00
78990;BME280;68390;52.130;21.218;2024-01-27T08:04:04;100664.88;;;2.05;100.00
78990;BME280;68390;52.130;21.218;2024-01-27T08:06:30;100662.16;;;2.05;100.00
78990;BME280;68390;52.130;21.218;2024-01-27T08:08:58;100672.66;;;2.10;100.00
78990;BME280;68390;52.130;21.218;2024-01-27T08:11:24;100659.34;;;1.94;100.00
78990;BME280;68390;52.130;21.218;2024-01-27T08:13:50;100638.25;;;1.87;100.00
78990;BME280;68390;52.130;21.218;2024-01-27T08:16:16;100630.22;;;1.85;100.00
78990;BME280;68390;52.130;21.218;2024-01-27T08:18:42;100628.25;;;1.87;100.00
78990;BME280;68390;52.130;21.218;2024-01-27T08:21:12;100666.25;;;2.11;100.00
78990;BME280;68390;52.130;21.218;2024-01-27T08:23:43;100661.41;;;2.03;100.00
78990;BME280;68390;52.130;21.218;2024-01-27T08:26:12;100675.69;;;2.05;100.00
78990;BME280;68390;52.130;21.218;2024-01-27T08:28:40;100673.97;;;2.04;100.00
78990;BME280;68390;52.130;21.218;2024-01-27T08:31:06;100668.75;;;2.01;100.00
78990;BME280;68390;52.130;21.218;2024-01-27T08:33:37;100655.78;;;1.94;100.00
78990;BME280;68390;52.130;21.218;2024-01-27T08:36:02;100675.03;;;2.02;100.00
78990;BME280;68390;52.130;21.218;2024-01-27T08:38:28;100645.34;;;1.88;100.00
78990;BME280;68390;52.130;21.218;2024-01-27T08:40:55;100675.91;;;2.02;100.00
78990;BME280;68390;52.130;21.218;2024-01-27T08:43:23;100671.47;;;2.01;100.00
78990;BME280;68390;52.130;21.218;2024-01-27T08:45:49;100666.50;;;1.95;100.00
78990;BME280;68390;52.130;21.218;2024-01-27T08:48:14;100657.72;;;1.92;100.00
78990;BME280;68390;52.130;21.218;2024-01-27T08:50:40;100709.03;;;2.18;100.00
78990;BME280;68390;52.130;21.218;2024-01-27T08:53:06;100692.56;;;2.09;100.00
78990;BME280;68390;52.130;21.218;2024-01-27T08:55:36;100673.50;;;1.98;100.00
78990;BME280;68390;52.130;21.218;2024-01-27T08:58:04;100662.81;;;1.96;100.00
78990;BME280;68390;52.130;21.218;2024-01-27T09:00:33;100669.22;;;1.95;100.00
78990;BME280;68390;52.130;21.218;2024-01-27T09:02:59;100717.63;;;2.25;100.00
78990;BME280;68390;52.130;21.218;2024-01-27T09:05:26;100720.44;;;2.24;100.00
78990;BME280;68390;52.130;21.218;2024-01-27T09:07:56;100697.13;;;2.08;100.00
78990;BME280;68390;52.130;21.218;2024-01-27T09:10:21;100734.63;;;2.27;100.00
78990;BME280;68390;52.130;21.218;2024-01-27T09:12:47;100677.00;;;2.00;100.00
78990;BME280;68390;52.130;21.218;2024-01-27T09:15:12;100723.34;;;2.20;100.00
78990;BME280;68390;52.130;21.218;2024-01-27T09:17:38;100702.22;;;2.13;100.00
78990;BME280;68390;52.130;21.218;2024-01-27T09:20:03;100721.41;;;2.22;100.00
78990;BME280;68390;52.130;21.218;2024-01-27T09:22:29;100730.59;;;2.33;100.00
78990;BME280;68390;52.130;21.218;2024-01-27T09:24:57;100724.66;;;2.28;100.00
78990;BME280;68390;52.130;21.218;2024-01-27T09:27:22;100716.19;;;2.19;100.00
78990;BME280;68390;52.130;21.218;2024-01-27T09:29:48;100741.56;;;2.31;100.00
78990;BME280;68390;52.130;21.218;2024-01-27T09:32:13;100742.41;;;2.32;100.00
78990;BME280;68390;52.130;21.218;2024-01-27T09:34:41;100702.88;;;2.16;100.00
78990;BME280;68390;52.130;21.218;2024-01-27T09:37:07;100711.75;;;2.18;100.00
78990;BME280;68390;52.130;21.218;2024-01-27T09:39:32;100732.03;;;2.26;100.00
78990;BME280;68390;52.130;21.218;2024-01-27T09:42:00;100740.94;;;2.28;100.00
78990;BME280;68390;52.130;21.218;2024-01-27T09:44:31;100732.59;;;2.18;100.00
78990;BME280;68390;52.130;21.218;2024-01-27T09:46:59;100747.63;;;2.22;100.00
78990;BME280;68390;52.130;21.218;2024-01-27T09:49:36;100722.06;;;2.13;100.00
78990;BME280;68390;52.130;21.218;2024-01-27T09:52:07;100724.00;;;2.11;100.00
78990;BME280;68390;52.130;21.218;2024-01-27T09:54:40;100749.78;;;2.30;100.00
78990;BME280;68390;52.130;21.218;2024-01-27T09:57:06;100711.88;;;2.17;100.00
78990;BME280;68390;52.130;21.218;2024-01-27T09:59:59;100766.69;;;2.46;100.00
78990;BME280;68390;52.130;21.218;2024-01-27T10:02:26;100767.00;;;2.54;100.00
78990;BME280;68390;52.130;21.218;2024-01-27T10:04:55;100748.50;;;2.35;100.00
78990;BME280;68390;52.130;21.218;2024-01-27T10:07:23;100749.38;;;2.36;100.00
78990;BME280;68390;52.130;21.218;2024-01-27T10:09:49;100749.16;;;2.39;100.00
78990;BME280;68390;52.130;21.218;2024-01-27T10:12:16;100764.41;;;2.52;100.00
78990;BME280;68390;52.130;21.218;2024-01-27T10:14:42;100782.81;;;2.60;100.00
78990;BME280;68390;52.130;21.218;2024-01-27T10:17:25;100778.16;;;2.62;100.00
78990;BME280;68390;52.130;21.218;2024-01-27T10:20:05;100786.19;;;2.64;100.00
78990;BME280;68390;52.130;21.218;2024-01-27T10:22:39;100788.59;;;2.68;100.00
78990;BME280;68390;52.130;21.218;2024-01-27T10:25:05;100784.34;;;2.64;100.00
78990;BME280;68390;52.130;21.218;2024-01-27T10:27:31;100782.59;;;2.63;100.00
78990;BME280;68390;52.130;21.218;2024-01-27T10:29:56;100806.81;;;2.66;100.00
78990;BME280;68390;52.130;21.218;2024-01-27T10:32:22;100802.44;;;2.64;100.00
78990;BME280;68390;52.130;21.218;2024-01-27T10:35:10;100814.59;;;2.71;100.00
78990;BME280;68390;52.130;21.218;2024-01-27T10:37:37;100821.44;;;2.76;100.00
78990;BME280;68390;52.130;21.218;2024-01-27T10:40:07;100814.16;;;2.77;100.00
78990;BME280;68390;52.130;21.218;2024-01-27T10:42:34;100820.22;;;2.80;100.00
78990;BME280;68390;52.130;21.218;2024-01-27T10:45:00;100824.78;;;2.80;100.00
78990;BME280;68390;52.130;21.218;2024-01-27T10:47:30;100817.50;;;2.80;100.00
78990;BME280;68390;52.130;21.218;2024-01-27T10:49:57;100829.34;;;2.79;100.00
78990;BME280;68390;52.130;21.218;2024-01-27T10:52:29;100834.53;;;2.82;100.00
78990;BME280;68390;52.130;21.218;2024-01-27T10:55:01;100838.22;;;2.81;100.00
78990;BME280;68390;52.130;21.218;2024-01-27T10:57:29;100832.59;;;2.84;100.00
78990;BME280;68390;52.130;21.218;2024-01-27T10:59:56;100846.69;;;2.89;100.00
78990;BME280;68390;52.130;21.218;2024-01-27T11:02:22;100843.84;;;2.91;100.00
78990;BME280;68390;52.130;21.218;2024-01-27T11:04:48;100827.56;;;2.91;100.00
78990;BME280;68390;52.130;21.218;2024-01-27T11:07:14;100850.03;;;2.93;100.00
78990;BME280;68390;52.130;21.218;2024-01-27T11:09:41;100844.50;;;2.94;100.00
78990;BME280;68390;52.130;21.218;2024-01-27T11:12:07;100843.41;;;2.97;100.00
78990;BME280;68390;52.130;21.218;2024-01-27T11:14:33;100861.19;;;3.01;100.00
78990;BME280;68390;52.130;21.218;2024-01-27T11:16:58;100864.66;;;3.03;100.00
78990;BME280;68390;52.130;21.218;2024-01-27T11:19:24;100868.34;;;3.02;100.00
78990;BME280;68390;52.130;21.218;2024-01-27T11:22:05;100877.06;;;2.94;100.00
78990;BME280;68390;52.130;21.218;2024-01-27T11:24:30;100869.13;;;2.91;100.00
78990;BME280;68390;52.130;21.218;2024-01-27T11:27:00;100881.81;;;2.91;100.00
78990;BME280;68390;52.130;21.218;2024-01-27T11:29:26;100894.53;;;2.90;100.00
78990;BME280;68390;52.130;21.218;2024-01-27T11:31:54;100900.28;;;2.86;100.00
78990;BME280;68390;52.130;21.218;2024-01-27T11:34:20;100882.72;;;2.79;100.00
78990;BME280;68390;52.130;21.218;2024-01-27T11:36:46;100905.91;;;2.83;100.00
78990;BME280;68390;52.130;21.218;2024-01-27T11:39:29;100907.00;;;2.80;100.00
78990;BME280;68390;52.130;21.218;2024-01-27T11:42:05;100909.69;;;2.80;100.00
78990;BME280;68390;52.130;21.218;2024-01-27T11:44:33;100911.69;;;2.78;100.00
78990;BME280;68390;52.130;21.218;2024-01-27T11:46:59;100921.75;;;2.76;100.00
78990;BME280;68390;52.130;21.218;2024-01-27T11:49:25;100927.94;;;2.78;100.00
78990;BME280;68390;52.130;21.218;2024-01-27T11:51:50;100918.72;;;2.81;100.00
78990;BME280;68390;52.130;21.218;2024-01-27T11:54:21;100933.38;;;2.78;100.00
78990;BME280;68390;52.130;21.218;2024-01-27T11:56:46;100935.97;;;2.80;100.00
78990;BME280;68390;52.130;21.218;2024-01-27T11:59:11;100944.97;;;2.80;100.00
78990;BME280;68390;52.130;21.218;2024-01-27T12:01:37;100943.25;;;2.79;100.00
78990;BME280;68390;52.130;21.218;2024-01-27T12:04:04;100943.34;;;2.78;100.00
78990;BME280;68390;52.130;21.218;2024-01-27T12:06:30;100958.97;;;2.74;100.00
78990;BME280;68390;52.130;21.218;2024-01-27T12:08:56;100963.72;;;2.71;100.00
78990;BME280;68390;52.130;21.218;2024-01-27T12:11:23;100964.81;;;2.68;100.00
78990;BME280;68390;52.130;21.218;2024-01-27T12:13:49;100965.03;;;2.65;100.00
78990;BME280;68390;52.130;21.218;2024-01-27T12:16:15;100963.19;;;2.66;100.00
78990;BME280;68390;52.130;21.218;2024-01-27T12:18:44;100972.97;;;2.68;100.00
78990;BME280;68390;52.130;21.218;2024-01-27T12:21:10;100980.22;;;2.68;100.00
78990;BME280;68390;52.130;21.218;2024-01-27T12:23:35;100978.16;;;2.58;100.00
78990;BME280;68390;52.130;21.218;2024-01-27T12:26:01;100992.56;;;2.59;100.00
78990;BME280;68390;52.130;21.218;2024-01-27T12:28:27;100992.56;;;2.59;100.00
78990;BME280;68390;52.130;21.218;2024-01-27T12:30:53;100997.75;;;2.62;100.00
78990;BME280;68390;52.130;21.218;2024-01-27T12:33:19;101006.13;;;2.59;100.00
78990;BME280;68390;52.130;21.218;2024-01-27T12:35:49;101006.53;;;2.53;100.00
78990;BME280;68390;52.130;21.218;2024-01-27T12:38:14;101020.75;;;2.56;100.00